Time;durP1;ratioP1;P1;durP2;ratioP2;P2;SDS_P1;SDS_P2;PMS_P1;PMS_P2;Temp;Humidity;BMP_temperature;BMP_pressure;BME280_temperature;BME280_humidity;BME280_pressure;Samples;Min_cycle;Max_cycle;Signal;HPM_P1;HPM_P2
2021/03/24 00:01:10;;;;;;;19.48;14.98;;;2.50;99.90;;;;;;4814821;29;20245;-79
2021/03/24 00:03:36;;;;;;;16.88;13.90;;;2.40;99.90;;;;;;4814431;29;20220;-80
2021/03/24 00:06:03;;;;;;;16.92;15.05;;;2.40;99.90;;;;;;4815458;29;20725;-80
2021/03/24 00:08:30;;;;;;;18.30;16.30;;;2.40;99.90;;;;;;4814346;29;20669;-79
2021/03/24 00:10:56;;;;;;;16.30;13.30;;;2.30;99.90;;;;;;4814675;29;20227;-80
2021/03/24 00:13:22;;;;;;;21.98;16.23;;;2.30;99.90;;;;;;4814185;29;20226;-82
2021/03/24 00:15:50;;;;;;;17.95;14.20;;;2.30;99.90;;;;;;4814584;29;20528;-79
2021/03/24 00:18:17;;;;;;;20.85;13.93;;;2.30;99.90;;;;;;4814500;29;20226;-81
2021/03/24 00:20:44;;;;;;;22.08;15.07;;;2.30;99.90;;;;;;4814559;29;20214;-81
2021/03/24 00:23:11;;;;;;;16.30;14.70;;;2.30;99.90;;;;;;4814500;29;20218;-81
2021/03/24 00:25:38;;;;;;;19.38;15.52;;;2.30;99.90;;;;;;4814617;29;20589;-81
2021/03/24 00:28:05;;;;;;;18.10;14.40;;;2.30;99.90;;;;;;4815485;29;20632;-81
2021/03/24 00:30:34;;;;;;;19.45;16.38;;;2.30;99.90;;;;;;4814390;29;20218;-80
2021/03/24 00:33:01;;;;;;;25.27;14.88;;;2.30;99.90;;;;;;4814089;29;20225;-82
2021/03/24 00:35:28;;;;;;;17.65;14.23;;;2.20;99.90;;;;;;4814510;29;20586;-81
2021/03/24 00:37:54;;;;;;;18.15;14.80;;;2.20;99.90;;;;;;4814529;29;20248;-82
2021/03/24 00:40:23;;;;;;;16.90;13.55;;;2.30;99.90;;;;;;4814885;29;20604;-81
2021/03/24 00:42:49;;;;;;;17.80;14.05;;;2.30;99.90;;;;;;4813756;29;20215;-81
2021/03/24 00:45:16;;;;;;;18.23;15.98;;;2.20;99.90;;;;;;4814873;29;20244;-81
2021/03/24 00:47:43;;;;;;;18.42;13.85;;;2.20;99.90;;;;;;4814291;29;20246;-82
2021/03/24 00:50:13;;;;;;;17.83;14.30;;;2.20;99.90;;;;;;4813930;29;20207;-79
2021/03/24 00:52:40;;;;;;;18.88;13.40;;;2.20;99.90;;;;;;4814156;29;20199;-81
2021/03/24 00:55:07;;;;;;;16.00;13.48;;;2.20;99.90;;;;;;4814811;29;20222;-81
2021/03/24 00:57:33;;;;;;;17.05;13.45;;;2.20;99.90;;;;;;4811815;29;20251;-81
2021/03/24 00:59:59;;;;;;;13.80;12.27;;;2.20;99.90;;;;;;4811493;29;20239;-79
2021/03/24 01:02:25;;;;;;;15.27;13.68;;;2.20;99.90;;;;;;4810980;29;20233;-81
2021/03/24 01:04:52;;;;;;;16.67;13.63;;;2.10;99.90;;;;;;4811411;29;20223;-81
2021/03/24 01:07:20;;;;;;;22.77;16.10;;;2.10;99.90;;;;;;4811065;29;20239;-81
2021/03/24 01:09:46;;;;;;;17.13;14.95;;;2.10;99.90;;;;;;4811674;29;20741;-81
2021/03/24 01:12:13;;;;;;;19.35;15.85;;;2.10;99.90;;;;;;4811613;29;20581;-81
2021/03/24 01:14:39;;;;;;;17.17;14.00;;;2.10;99.90;;;;;;4811468;29;20215;-80
2021/03/24 01:17:06;;;;;;;20.92;16.00;;;2.10;99.90;;;;;;4811160;29;20648;-80
2021/03/24 01:19:32;;;;;;;19.38;15.75;;;2.10;99.90;;;;;;4811320;29;20237;-81
2021/03/24 01:21:58;;;;;;;18.48;15.80;;;2.10;99.90;;;;;;4811457;29;20223;-81
2021/03/24 01:24:26;;;;;;;15.73;13.93;;;2.00;99.90;;;;;;4811874;29;20222;-82
2021/03/24 01:26:52;;;;;;;23.40;16.08;;;2.00;99.90;;;;;;4811441;29;20317;-81
2021/03/24 01:29:18;;;;;;;19.77;14.55;;;2.00;99.90;;;;;;4811232;29;20244;-82
2021/03/24 01:31:44;;;;;;;17.52;15.27;;;2.00;99.90;;;;;;4810671;29;20218;-81
2021/03/24 01:34:10;;;;;;;17.15;15.45;;;2.00;99.90;;;;;;4811245;29;20223;-81
2021/03/24 01:36:37;;;;;;;21.42;16.63;;;2.00;99.90;;;;;;4810773;29;20243;-81
2021/03/24 01:39:04;;;;;;;17.13;15.40;;;2.00;99.90;;;;;;4811060;29;20238;-81
2021/03/24 01:41:31;;;;;;;25.73;17.45;;;1.90;99.90;;;;;;4810977;29;20210;-81
2021/03/24 01:43:58;;;;;;;17.70;15.68;;;1.90;99.90;;;;;;4811174;29;20583;-81
2021/03/24 01:46:48;;;;;;;20.55;16.02;;;1.90;99.90;;;;;;4810598;29;20239;-80
2021/03/24 01:49:20;;;;;;;25.27;17.85;;;1.90;99.90;;;;;;4803828;29;20222;-81
2021/03/24 01:51:49;;;;;;;19.15;14.40;;;1.90;99.90;;;;;;4810658;29;20218;-80
2021/03/24 01:54:20;;;;;;;19.15;16.05;;;1.90;99.90;;;;;;4811407;29;20214;-81
2021/03/24 01:56:52;;;;;;;21.02;17.67;;;1.90;99.90;;;;;;4810562;29;20234;-80
2021/03/24 01:59:18;;;;;;;18.13;14.65;;;1.90;99.90;;;;;;4810358;29;20223;-81
2021/03/24 02:01:45;;;;;;;19.80;16.15;;;1.90;99.90;;;;;;4810362;29;20216;-81
2021/03/24 02:04:11;;;;;;;20.27;17.17;;;1.90;99.90;;;;;;4810851;29;20218;-81
2021/03/24 02:06:45;;;;;;;23.80;15.98;;;1.90;99.90;;;;;;4810248;29;20242;-81
2021/03/24 02:09:22;;;;;;;20.52;14.95;;;1.90;99.90;;;;;;4810422;29;20217;-81
2021/03/24 02:11:57;;;;;;;21.55;16.55;;;1.90;99.90;;;;;;4810973;29;20215;-81
2021/03/24 02:14:28;;;;;;;19.45;14.45;;;1.80;99.90;;;;;;4810574;29;20302;-81
2021/03/24 02:16:55;;;;;;;19.05;15.15;;;1.80;99.90;;;;;;4810424;29;20253;-81
2021/03/24 02:19:31;;;;;;;18.73;15.00;;;1.90;99.90;;;;;;4810113;29;20256;-80
2021/03/24 02:21:58;;;;;;;22.90;16.05;;;1.80;99.90;;;;;;4809942;29;20210;-81
2021/03/24 02:24:46;;;;;;;20.05;15.95;;;1.80;99.90;;;;;;4809754;29;20210;-81
2021/03/24 02:27:17;;;;;;;25.45;15.80;;;1.80;99.90;;;;;;4809624;29;20236;-81
2021/03/24 02:29:49;;;;;;;21.73;16.05;;;1.80;99.90;;;;;;4810232;29;20214;-81
2021/03/24 02:32:17;;;;;;;20.60;16.17;;;1.80;99.90;;;;;;4810195;29;20210;-80
2021/03/24 02:34:46;;;;;;;23.00;18.23;;;1.70;99.90;;;;;;4811224;29;20214;-81
2021/03/24 02:37:14;;;;;;;16.42;13.25;;;1.70;99.90;;;;;;4811085;29;20237;-81
2021/03/24 02:39:43;;;;;;;20.83;15.80;;;1.80;99.90;;;;;;4810757;29;20242;-82
2021/03/24 02:42:12;;;;;;;18.52;15.73;;;1.70;99.90;;;;;;4809907;29;20219;-82
2021/03/24 02:44:41;;;;;;;22.05;15.27;;;1.70;99.90;;;;;;4809842;29;20589;-82
2021/03/24 02:47:09;;;;;;;19.35;16.10;;;1.70;99.90;;;;;;4809305;29;20242;-81
2021/03/24 02:49:37;;;;;;;19.90;17.17;;;1.70;99.90;;;;;;4810095;29;20217;-82
2021/03/24 02:52:04;;;;;;;25.05;17.67;;;1.70;99.90;;;;;;4809414;29;20218;-80
2021/03/24 02:54:32;;;;;;;21.10;16.75;;;1.70;99.90;;;;;;4809746;29;20234;-81
2021/03/24 02:57:00;;;;;;;18.15;16.25;;;1.70;99.90;;;;;;4809438;29;20234;-80
2021/03/24 02:59:26;;;;;;;21.65;18.63;;;1.70;99.90;;;;;;4809193;29;20239;-80
2021/03/24 03:02:01;;;;;;;19.52;16.35;;;1.70;99.90;;;;;;4809759;29;20222;-81
2021/03/24 03:04:32;;;;;;;19.48;16.23;;;1.70;99.90;;;;;;4810091;29;20645;-81
2021/03/24 03:07:02;;;;;;;25.98;17.48;;;1.70;99.90;;;;;;4809116;29;20257;-80
2021/03/24 03:09:35;;;;;;;22.05;15.65;;;1.70;99.90;;;;;;4809665;29;20677;-80
2021/03/24 03:12:08;;;;;;;23.35;16.92;;;1.70;99.90;;;;;;4809168;29;20237;-81
2021/03/24 03:14:41;;;;;;;18.33;16.27;;;1.70;99.90;;;;;;4809152;29;20210;-80
2021/03/24 03:17:13;;;;;;;20.20;17.80;;;1.70;99.90;;;;;;4809078;29;20239;-80
2021/03/24 03:19:44;;;;;;;22.95;17.50;;;1.70;99.90;;;;;;4809790;29;20242;-80
2021/03/24 03:22:16;;;;;;;22.20;16.27;;;1.70;99.90;;;;;;4808760;29;20678;-80
2021/03/24 03:24:48;;;;;;;19.52;15.30;;;1.70;99.90;;;;;;4808611;29;20215;-80
2021/03/24 03:27:18;;;;;;;21.90;17.10;;;1.60;99.90;;;;;;4809249;29;20239;-80
2021/03/24 03:29:45;;;;;;;18.02;15.85;;;1.70;99.90;;;;;;4808838;29;20240;-80
2021/03/24 03:32:17;;;;;;;16.95;14.50;;;1.70;99.90;;;;;;4808377;29;20214;-80
2021/03/24 03:34:47;;;;;;;17.85;15.32;;;1.60;99.90;;;;;;4808440;29;20231;-80
2021/03/24 03:37:14;;;;;;;21.50;16.23;;;1.60;99.90;;;;;;4807658;29;20239;-80
2021/03/24 03:39:44;;;;;;;21.85;16.60;;;1.60;99.90;;;;;;4808551;29;20238;-80
2021/03/24 03:42:10;;;;;;;19.38;17.13;;;1.60;99.90;;;;;;4808454;29;20221;-80
2021/03/24 03:44:37;;;;;;;21.60;15.82;;;1.60;99.90;;;;;;4808863;29;20685;-80
2021/03/24 03:47:06;;;;;;;26.13;19.20;;;1.60;99.90;;;;;;4808158;29;20253;-81
2021/03/24 03:49:36;;;;;;;29.52;18.27;;;1.60;99.90;;;;;;4808479;29;20237;-80
2021/03/24 03:52:12;;;;;;;22.05;19.15;;;1.50;99.90;;;;;;4808848;29;20214;-80
2021/03/24 03:54:44;;;;;;;20.80;18.70;;;1.50;99.90;;;;;;4808565;29;20210;-80
2021/03/24 03:57:16;;;;;;;20.88;18.20;;;1.50;99.90;;;;;;4808898;29;20825;-80
2021/03/24 03:59:56;;;;;;;20.65;18.00;;;1.50;99.90;;;;;;4808460;29;20299;-80
2021/03/24 04:02:31;;;;;;;25.92;17.55;;;1.50;99.90;;;;;;4807958;29;20221;-80
2021/03/24 04:05:05;;;;;;;25.08;17.85;;;1.50;99.90;;;;;;4808623;29;20214;-79
2021/03/24 04:07:38;;;;;;;21.85;18.58;;;1.40;99.90;;;;;;4808663;29;20235;-80
2021/03/24 04:10:06;;;;;;;21.08;16.58;;;1.50;99.90;;;;;;4808734;29;20598;-80
2021/03/24 04:12:35;;;;;;;23.20;18.90;;;1.40;99.90;;;;;;4808186;29;20233;-80
2021/03/24 04:15:04;;;;;;;18.88;15.85;;;1.40;99.90;;;;;;4807864;29;20225;-80
2021/03/24 04:17:35;;;;;;;23.75;17.83;;;1.40;99.90;;;;;;4808407;29;20237;-80
2021/03/24 04:20:07;;;;;;;26.10;18.13;;;1.40;99.90;;;;;;4808273;29;20234;-80
2021/03/24 04:22:35;;;;;;;24.02;18.15;;;1.40;99.90;;;;;;4808355;29;20242;-80
2021/03/24 04:25:03;;;;;;;24.35;17.88;;;1.40;99.90;;;;;;4808728;29;20610;-80
2021/03/24 04:27:36;;;;;;;20.52;15.77;;;1.40;99.90;;;;;;4808335;29;20266;-80
2021/03/24 04:30:06;;;;;;;21.00;17.30;;;1.40;99.90;;;;;;4808459;29;20226;-79
2021/03/24 04:32:33;;;;;;;25.13;17.77;;;1.40;99.90;;;;;;4809342;29;20219;-80
2021/03/24 04:34:59;;;;;;;21.40;17.00;;;1.40;99.90;;;;;;4811509;29;20638;-81
2021/03/24 04:37:30;;;;;;;22.52;17.73;;;1.40;99.90;;;;;;4811715;29;20249;-80
2021/03/24 04:40:01;;;;;;;26.60;18.92;;;1.40;99.90;;;;;;4811224;29;20281;-79
2021/03/24 04:42:35;;;;;;;21.20;18.13;;;1.40;99.90;;;;;;4812152;29;20584;-79
2021/03/24 04:45:15;;;;;;;22.73;17.17;;;1.40;99.90;;;;;;4811903;29;20230;-80
2021/03/24 04:47:46;;;;;;;21.20;16.25;;;1.40;99.90;;;;;;4811080;29;20340;-80
2021/03/24 04:50:21;;;;;;;24.95;17.88;;;1.40;99.90;;;;;;4811431;29;20215;-79
2021/03/24 04:52:50;;;;;;;20.30;15.63;;;1.40;99.90;;;;;;4811261;29;20220;-79
2021/03/24 04:55:22;;;;;;;22.90;17.35;;;1.40;99.90;;;;;;4811831;29;20294;-79
2021/03/24 04:57:49;;;;;;;20.63;15.82;;;1.40;99.90;;;;;;4811819;29;20249;-79
2021/03/24 05:00:27;;;;;;;24.05;18.90;;;1.40;99.90;;;;;;4810806;29;20237;-79
2021/03/24 05:02:59;;;;;;;24.25;19.15;;;1.40;99.90;;;;;;4810875;29;20222;-79
2021/03/24 05:05:28;;;;;;;24.63;19.08;;;1.40;99.90;;;;;;4811286;29;20209;-79
2021/03/24 05:08:00;;;;;;;23.92;18.17;;;1.40;99.90;;;;;;4811235;29;20230;-79
2021/03/24 05:10:30;;;;;;;27.92;18.55;;;1.40;99.90;;;;;;4810271;29;20270;-79
2021/03/24 05:13:06;;;;;;;24.25;18.00;;;1.40;99.90;;;;;;4810708;29;20226;-79
2021/03/24 05:15:36;;;;;;;20.38;17.70;;;1.40;99.90;;;;;;4810752;29;20213;-79
2021/03/24 05:18:05;;;;;;;22.63;18.90;;;1.30;99.90;;;;;;4810928;29;20214;-79
2021/03/24 05:20:38;;;;;;;23.58;17.60;;;1.30;99.90;;;;;;4810431;29;20243;-79
2021/03/24 05:23:08;;;;;;;18.70;15.45;;;1.30;99.90;;;;;;4810301;29;20218;-80
2021/03/24 05:25:38;;;;;;;25.33;17.60;;;1.30;99.90;;;;;;4810319;29;20247;-79
2021/03/24 05:28:12;;;;;;;22.00;19.73;;;1.30;99.90;;;;;;4810270;29;20219;-79
2021/03/24 05:30:40;;;;;;;23.25;19.67;;;1.30;99.90;;;;;;4810632;29;20222;-79
2021/03/24 05:33:14;;;;;;;20.98;16.38;;;1.30;99.90;;;;;;4815270;29;20599;-78
2021/03/24 05:35:46;;;;;;;20.70;16.40;;;1.20;99.90;;;;;;4817003;29;20222;-78
2021/03/24 05:38:18;;;;;;;21.30;19.15;;;1.20;99.90;;;;;;4809858;29;20224;-78
2021/03/24 05:41:06;;;;;;;21.63;18.70;;;1.20;99.90;;;;;;4816676;29;20234;-80
2021/03/24 05:43:58;;;;;;;27.05;18.67;;;1.20;99.90;;;;;;4816416;29;20339;-77
2021/03/24 05:46:38;;;;;;;24.00;17.23;;;1.20;99.90;;;;;;4806263;29;20250;-77
2021/03/24 05:49:21;;;;;;;25.05;20.23;;;1.30;99.90;;;;;;4816966;29;20237;-77
2021/03/24 05:51:59;;;;;;;16.52;14.82;;;1.30;99.90;;;;;;4816825;29;20305;-78
2021/03/24 05:54:57;;;;;;;21.27;16.98;;;1.30;99.90;;;;;;4817876;29;20225;-77
2021/03/24 05:57:43;;;;;;;25.98;18.00;;;1.30;99.90;;;;;;4800872;29;20238;-77
2021/03/24 06:00:32;;;;;;;23.58;17.73;;;1.30;99.90;;;;;;4816501;29;20234;-78
2021/03/24 06:03:12;;;;;;;25.35;17.00;;;1.40;99.90;;;;;;4809657;29;20243;-78
2021/03/24 06:05:46;;;;;;;21.85;16.45;;;1.40;99.90;;;;;;4810198;29;20218;-79
2021/03/24 06:08:42;;;;;;;19.77;16.05;;;1.40;99.90;;;;;;4809864;29;20218;-79
2021/03/24 06:11:46;;;;;;;19.48;15.73;;;1.50;99.90;;;;;;4799524;29;20691;-79
2021/03/24 06:15:05;;;;;;;23.42;17.52;;;1.50;99.90;;;;;;4803327;29;20710;-79
2021/03/24 06:17:48;;;;;;;27.67;17.67;;;1.50;99.90;;;;;;4794079;29;20319;-79
2021/03/24 06:20:25;;;;;;;19.17;16.95;;;1.60;99.90;;;;;;4812366;29;20242;-79
2021/03/24 06:23:17;;;;;;;22.73;17.10;;;1.60;99.90;;;;;;4812489;29;20676;-79
2021/03/24 06:25:47;;;;;;;23.42;17.67;;;1.70;99.90;;;;;;4811735;29;20689;-80
2021/03/24 06:28:39;;;;;;;22.35;19.60;;;1.70;99.90;;;;;;4810635;29;20739;-79
2021/03/24 06:31:34;;;;;;;19.90;16.95;;;1.80;99.90;;;;;;4810359;29;20210;-80
2021/03/24 06:34:26;;;;;;;22.73;17.00;;;1.90;99.90;;;;;;4809363;29;20216;-80
2021/03/24 06:37:06;;;;;;;21.52;16.40;;;1.90;99.90;;;;;;4809195;29;20239;-80
2021/03/24 06:40:11;;;;;;;22.27;17.38;;;2.00;99.90;;;;;;4808520;29;20218;-81
2021/03/24 06:42:44;;;;;;;21.42;18.50;;;2.10;99.90;;;;;;4796290;29;20219;-80
2021/03/24 06:45:36;;;;;;;21.98;18.60;;;2.20;99.90;;;;;;4809016;29;20219;-81
2021/03/24 06:48:13;;;;;;;19.70;15.40;;;2.20;99.90;;;;;;4810107;29;20226;-81
2021/03/24 06:51:19;;;;;;;28.25;18.90;;;2.30;99.90;;;;;;4812218;29;20207;-80
2021/03/24 06:54:20;;;;;;;21.60;18.40;;;2.40;99.90;;;;;;4807328;29;20194;-80
2021/03/24 06:57:15;;;;;;;27.80;18.05;;;2.60;99.90;;;;;;4810640;29;20230;-82
2021/03/24 07:00:14;;;;;;;28.98;19.92;;;2.70;99.90;;;;;;4802719;29;20226;-82
2021/03/24 07:03:23;;;;;;;19.88;17.77;;;2.70;99.90;;;;;;4797572;29;20215;-80
2021/03/24 07:06:05;;;;;;;23.40;19.92;;;2.80;99.90;;;;;;4765816;29;20240;-82
2021/03/24 07:08:44;;;;;;;24.27;18.17;;;2.90;99.90;;;;;;4821196;29;20223;-82
2021/03/24 07:11:42;;;;;;;22.95;19.05;;;3.00;99.90;;;;;;4821972;29;20209;-82
2021/03/24 07:14:40;;;;;;;21.83;16.98;;;3.00;99.90;;;;;;4790699;29;20220;-80
2021/03/24 07:17:21;;;;;;;19.85;17.05;;;3.00;99.90;;;;;;4809063;29;20237;-82
2021/03/24 07:20:34;;;;;;;25.38;18.15;;;3.10;99.90;;;;;;4808160;29;20230;-82
2021/03/24 07:23:13;;;;;;;25.65;17.48;;;3.10;99.90;;;;;;4810072;29;20617;-81
2021/03/24 07:25:43;;;;;;;24.42;18.45;;;3.20;99.90;;;;;;4808530;29;20233;-81
2021/03/24 07:28:25;;;;;;;28.08;18.52;;;3.30;99.90;;;;;;4808398;29;20212;-84
2021/03/24 07:31:35;;;;;;;25.10;17.08;;;3.40;99.90;;;;;;4808384;29;20651;-82
2021/03/24 07:34:22;;;;;;;23.52;17.42;;;3.60;99.90;;;;;;4809066;29;20234;-82
2021/03/24 07:37:29;;;;;;;21.48;19.20;;;3.70;99.90;;;;;;4808706;29;20246;-82
2021/03/24 07:40:18;;;;;;;20.77;18.33;;;3.80;99.90;;;;;;4809157;29;20245;-81
2021/03/24 07:43:10;;;;;;;24.25;17.63;;;3.80;99.90;;;;;;4805277;29;20210;-81
2021/03/24 07:45:50;;;;;;;19.50;15.82;;;4.00;99.90;;;;;;4808411;29;20219;-80
2021/03/24 07:48:39;;;;;;;18.83;16.52;;;4.00;99.90;;;;;;4808220;29;20225;-81
2021/03/24 07:51:13;;;;;;;24.33;18.77;;;4.20;99.90;;;;;;4808337;29;20247;-81
2021/03/24 07:53:49;;;;;;;28.20;19.08;;;4.30;99.90;;;;;;4807636;29;20562;-80
2021/03/24 07:56:26;;;;;;;21.45;17.42;;;4.40;99.90;;;;;;4801462;29;20786;-81
2021/03/24 07:59:21;;;;;;;21.85;16.10;;;4.50;99.90;;;;;;4807913;29;20221;-81
2021/03/24 08:01:58;;;;;;;24.35;19.50;;;4.60;99.90;;;;;;4807620;29;20217;-80
2021/03/24 08:04:46;;;;;;;22.98;16.40;;;4.70;99.90;;;;;;4808046;29;20737;-81
2021/03/24 08:07:20;;;;;;;19.70;17.55;;;4.80;99.90;;;;;;4810240;29;20743;-81
2021/03/24 08:10:06;;;;;;;20.70;17.73;;;4.90;99.90;;;;;;4811471;29;20216;-81
2021/03/24 08:12:52;;;;;;;20.95;16.20;;;5.10;99.90;;;;;;4811657;29;20222;-81
2021/03/24 08:15:53;;;;;;;20.00;16.10;;;5.20;99.90;;;;;;4811222;29;20214;-81
2021/03/24 08:18:31;;;;;;;25.50;17.52;;;5.40;99.90;;;;;;4809319;29;20213;-80
2021/03/24 08:21:03;;;;;;;21.20;18.77;;;5.50;99.90;;;;;;4811689;29;20238;-82
2021/03/24 08:24:01;;;;;;;20.77;16.90;;;5.60;99.90;;;;;;4810527;29;20637;-82
2021/03/24 08:26:35;;;;;;;19.95;15.68;;;5.70;99.90;;;;;;4810860;29;20245;-82
2021/03/24 08:29:09;;;;;;;17.25;15.65;;;5.80;99.90;;;;;;4811165;29;20214;-81
2021/03/24 08:32:23;;;;;;;23.42;15.63;;;6.00;99.90;;;;;;4810866;29;20229;-82
2021/03/24 08:35:24;;;;;;;21.90;17.05;;;6.10;99.90;;;;;;4820269;29;20214;-80
2021/03/24 08:38:08;;;;;;;19.60;15.65;;;6.30;99.90;;;;;;4819934;29;20221;-81
2021/03/24 08:41:27;;;;;;;15.70;14.00;;;6.40;99.90;;;;;;4816045;29;20241;-81
2021/03/24 08:44:05;;;;;;;21.00;16.48;;;6.40;99.90;;;;;;4737262;30;20223;-82
2021/03/24 08:46:37;;;;;;;21.65;17.10;;;6.50;99.90;;;;;;4809956;29;20257;-82
2021/03/24 08:49:08;;;;;;;18.92;15.52;;;6.60;99.90;;;;;;4810865;29;20218;-81
2021/03/24 08:51:49;;;;;;;22.52;16.50;;;6.70;99.90;;;;;;4810091;29;20221;-81
2021/03/24 08:55:02;;;;;;;20.75;15.80;;;6.90;99.90;;;;;;4810713;29;20267;-81
2021/03/24 08:57:39;;;;;;;21.10;16.60;;;7.00;99.90;;;;;;4810825;29;20241;-82
2021/03/24 09:00:18;;;;;;;18.35;14.82;;;7.20;99.90;;;;;;4811529;29;20234;-82
2021/03/24 09:02:59;;;;;;;21.95;15.43;;;7.30;99.90;;;;;;4810492;29;20271;-82
2021/03/24 09:05:30;;;;;;;21.80;15.55;;;7.30;99.90;;;;;;4809987;29;20221;-82
2021/03/24 09:08:20;;;;;;;19.33;15.43;;;7.40;99.90;;;;;;4810877;29;20780;-81
2021/03/24 09:11:02;;;;;;;18.48;14.68;;;7.50;99.90;;;;;;4810020;29;20295;-82
2021/03/24 09:13:33;;;;;;;19.63;15.77;;;7.70;99.90;;;;;;4810817;29;20223;-82
2021/03/24 09:16:41;;;;;;;22.10;15.90;;;7.80;99.90;;;;;;4812199;29;20236;-82
2021/03/24 09:19:22;;;;;;;18.48;14.65;;;8.00;99.90;;;;;;4776952;29;20225;-82
2021/03/24 09:22:01;;;;;;;16.73;15.13;;;8.10;99.90;;;;;;4810382;29;20221;-82
2021/03/24 09:24:44;;;;;;;19.45;14.20;;;8.30;99.90;;;;;;4810746;29;20218;-81
2021/03/24 09:27:35;;;;;;;18.63;16.65;;;8.40;99.90;;;;;;4809872;29;20238;-82
2021/03/24 09:30:31;;;;;;;17.58;15.68;;;8.60;99.90;;;;;;4809701;29;20214;-82
2021/03/24 09:33:07;;;;;;;17.00;15.13;;;8.70;99.30;;;;;;4809706;29;20214;-81
2021/03/24 09:35:42;;;;;;;20.45;15.57;;;8.80;99.10;;;;;;4809697;29;20266;-82
2021/03/24 09:38:12;;;;;;;17.83;14.43;;;8.80;98.40;;;;;;4810018;29;20214;-82
2021/03/24 09:40:41;;;;;;;22.75;14.77;;;8.70;98.20;;;;;;4809609;29;20603;-82
2021/03/24 09:43:21;;;;;;;16.73;15.05;;;8.90;98.70;;;;;;4809655;29;20215;-81
2021/03/24 09:45:58;;;;;;;17.15;13.93;;;9.00;98.60;;;;;;4809579;29;20279;-82
2021/03/24 09:48:24;;;;;;;18.08;14.90;;;9.20;98.60;;;;;;4810312;29;20649;-82
2021/03/24 09:51:04;;;;;;;18.05;15.65;;;9.30;97.90;;;;;;4809821;29;20214;-82
2021/03/24 09:53:32;;;;;;;24.10;16.95;;;9.40;97.20;;;;;;4809636;29;20218;-82
2021/03/24 09:56:05;;;;;;;22.38;17.65;;;9.40;96.80;;;;;;4809901;29;20609;-82
2021/03/24 09:58:59;;;;;;;16.10;14.40;;;9.50;97.20;;;;;;4809602;29;20214;-82
2021/03/24 10:01:38;;;;;;;18.65;14.43;;;9.60;97.40;;;;;;4809051;29;20239;-82
2021/03/24 10:04:16;;;;;;;18.58;14.90;;;9.80;97.20;;;;;;4809889;29;20214;-81
2021/03/24 10:06:52;;;;;;;17.52;15.60;;;10.00;96.20;;;;;;4809096;29;20234;-82
2021/03/24 10:09:27;;;;;;;16.65;14.95;;;10.10;95.70;;;;;;4809681;29;20226;-81
2021/03/24 10:12:04;;;;;;;15.38;12.75;;;10.30;94.90;;;;;;4808889;29;20217;-81
2021/03/24 10:14:36;;;;;;;19.60;14.85;;;10.40;95.20;;;;;;4809385;29;20225;-82
2021/03/24 10:17:07;;;;;;;18.10;14.33;;;10.60;94.70;;;;;;4809741;29;20244;-82
2021/03/24 10:19:37;;;;;;;15.67;11.93;;;10.80;94.30;;;;;;4810671;29;20502;-82
2021/03/24 10:22:12;;;;;;;16.10;13.40;;;11.00;94.60;;;;;;4809122;29;20473;-82
2021/03/24 10:24:44;;;;;;;14.80;12.77;;;11.10;93.50;;;;;;4809640;29;20473;-81
2021/03/24 10:27:14;;;;;;;16.57;13.93;;;11.10;93.20;;;;;;4809780;29;20489;-82
2021/03/24 10:29:48;;;;;;;13.87;12.43;;;11.30;93.20;;;;;;4809023;29;20462;-82
2021/03/24 10:32:22;;;;;;;15.30;12.83;;;11.50;92.90;;;;;;4808851;29;20520;-82
2021/03/24 10:34:53;;;;;;;17.00;12.07;;;11.70;93.00;;;;;;4809344;29;20841;-82
2021/03/24 10:37:37;;;;;;;11.83;10.60;;;11.90;92.10;;;;;;4808942;29;20482;-82
2021/03/24 10:40:10;;;;;;;14.67;12.20;;;12.10;91.30;;;;;;4809246;29;20495;-82
2021/03/24 10:42:41;;;;;;;13.23;10.23;;;12.00;90.30;;;;;;4808121;29;20458;-82
2021/03/24 10:45:23;;;;;;;10.67;9.50;;;12.20;90.80;;;;;;4808791;29;20943;-82
2021/03/24 10:47:54;;;;;;;13.10;11.80;;;12.40;90.30;;;;;;4808830;29;20498;-82
2021/03/24 10:50:36;;;;;;;13.97;11.80;;;12.40;90.00;;;;;;4809313;29;20600;-82
2021/03/24 10:53:07;;;;;;;12.77;11.50;;;12.60;90.00;;;;;;4808638;29;20476;-82
2021/03/24 10:55:38;;;;;;;18.07;14.17;;;12.50;89.00;;;;;;4809014;29;20470;-82
2021/03/24 10:58:23;;;;;;;12.83;10.90;;;12.40;89.90;;;;;;4808856;29;20473;-82
2021/03/24 11:00:59;;;;;;;10.50;9.53;;;12.50;88.60;;;;;;4808793;29;20876;-82
2021/03/24 11:03:32;;;;;;;11.93;10.70;;;12.40;89.70;;;;;;4808678;29;20463;-82
2021/03/24 11:06:05;;;;;;;12.70;10.97;;;12.50;90.20;;;;;;4808972;29;21245;-83
2021/03/24 11:08:41;;;;;;;14.27;11.33;;;13.00;90.90;;;;;;4809230;29;20475;-82
2021/03/24 11:11:13;;;;;;;13.40;12.00;;;13.60;86.90;;;;;;4809255;29;20467;-82
2021/03/24 11:13:47;;;;;;;12.73;11.27;;;14.10;87.40;;;;;;4808953;29;20468;-82
2021/03/24 11:16:19;;;;;;;12.77;10.20;;;14.80;84.80;;;;;;4809940;29;20479;-81
2021/03/24 11:18:47;;;;;;;10.93;9.87;;;15.70;83.80;;;;;;4809547;29;20459;-83
2021/03/24 11:21:41;;;;;;;12.57;9.73;;;16.50;79.90;;;;;;4809021;29;20504;-82
2021/03/24 11:24:23;;;;;;;12.40;10.90;;;17.30;75.70;;;;;;4793207;29;20469;-82
2021/03/24 11:27:03;;;;;;;12.17;10.30;;;17.90;75.30;;;;;;4809082;29;20492;-83
2021/03/24 11:29:32;;;;;;;10.20;9.07;;;18.70;75.10;;;;;;4809071;29;20451;-82
2021/03/24 11:32:01;;;;;;;12.10;10.93;;;19.40;68.90;;;;;;4808337;29;20946;-82
2021/03/24 11:34:38;;;;;;;11.30;10.20;;;20.00;66.90;;;;;;4810669;29;20464;-82
2021/03/24 11:37:26;;;;;;;11.93;10.57;;;20.40;62.10;;;;;;4813187;29;20459;-83
2021/03/24 11:40:03;;;;;;;12.33;11.23;;;21.00;62.40;;;;;;4810896;29;20552;-83
2021/03/24 11:42:32;;;;;;;11.30;10.10;;;21.50;58.80;;;;;;4809814;29;20459;-83
2021/03/24 11:44:58;;;;;;;10.57;9.57;;;21.90;57.40;;;;;;4809631;29;20461;-83
2021/03/24 11:47:51;;;;;;;12.03;10.47;;;22.00;54.10;;;;;;4809280;29;20496;-83
2021/03/24 11:50:26;;;;;;;9.20;8.40;;;21.40;53.10;;;;;;4809275;29;20460;-82
2021/03/24 11:53:01;;;;;;;9.90;9.00;;;20.90;53.90;;;;;;4809766;29;20468;-83
2021/03/24 11:55:46;;;;;;;11.13;10.23;;;20.50;53.50;;;;;;4809625;29;20467;-83
2021/03/24 11:58:44;;;;;;;10.50;9.30;;;20.50;54.40;;;;;;4810003;29;20471;-83
2021/03/24 12:01:30;;;;;;;10.60;9.60;;;20.60;55.40;;;;;;4809854;29;20491;-83
2021/03/24 12:04:08;;;;;;;10.50;9.50;;;20.80;54.30;;;;;;4809891;29;20464;-82
2021/03/24 12:06:44;;;;;;;11.60;10.50;;;20.80;52.90;;;;;;4809786;29;20494;-83
2021/03/24 12:09:19;;;;;;;10.60;9.57;;;20.80;53.90;;;;;;4809390;29;20471;-84
2021/03/24 12:11:46;;;;;;;8.37;7.57;;;21.30;54.00;;;;;;4809426;29;20533;-83
2021/03/24 12:14:16;;;;;;;9.37;8.47;;;21.60;52.00;;;;;;4810218;29;20520;-82
2021/03/24 12:16:48;;;;;;;10.70;9.67;;;22.00;51.30;;;;;;4810108;29;20488;-84
2021/03/24 12:19:30;;;;;;;10.90;9.90;;;22.10;51.30;;;;;;4809786;29;20465;-84
2021/03/24 12:21:58;;;;;;;14.33;12.90;;;22.30;52.70;;;;;;4809614;29;20484;-83
2021/03/24 12:24:28;;;;;;;14.23;12.83;;;22.70;51.30;;;;;;4810017;29;20465;-83
2021/03/24 12:27:11;;;;;;;15.43;13.90;;;23.00;51.40;;;;;;4810251;29;20489;-84
2021/03/24 12:29:39;;;;;;;15.43;13.83;;;23.20;48.90;;;;;;4810308;29;20885;-84
2021/03/24 12:32:15;;;;;;;13.73;12.50;;;23.00;48.80;;;;;;4809742;29;20523;-84
2021/03/24 12:34:44;;;;;;;15.80;14.23;;;22.70;49.30;;;;;;4810017;29;20465;-83
2021/03/24 12:37:28;;;;;;;14.07;12.60;;;22.90;51.40;;;;;;4809271;29;20493;-84
2021/03/24 12:40:06;;;;;;;14.83;11.57;;;23.70;51.20;;;;;;4809787;29;20511;-83
2021/03/24 12:42:33;;;;;;;11.93;10.73;;;24.60;49.90;;;;;;4809154;29;20470;-84
2021/03/24 12:45:04;;;;;;;11.87;10.47;;;25.60;48.80;;;;;;4809126;29;20518;-84
2021/03/24 12:47:34;;;;;;;11.90;10.80;;;26.50;46.90;;;;;;4809801;29;20872;-84
2021/03/24 12:50:27;;;;;;;12.20;11.10;;;27.40;44.40;;;;;;4809481;29;20462;-84
2021/03/24 12:53:12;;;;;;;11.80;10.80;;;28.10;41.80;;;;;;4807070;29;20493;-83
2021/03/24 12:55:39;;;;;;;12.37;11.27;;;28.60;40.10;;;;;;4809797;29;20476;-85
2021/03/24 12:58:23;;;;;;;11.60;10.50;;;28.80;39.10;;;;;;4814024;29;20460;-86
2021/03/24 13:01:01;;;;;;;10.97;9.70;;;29.10;37.40;;;;;;4814586;29;20501;-82
2021/03/24 13:03:55;;;;;;;10.60;9.70;;;29.40;36.70;;;;;;4814624;29;20968;-82
2021/03/24 13:06:36;;;;;;;15.90;12.57;;;29.10;36.80;;;;;;4815230;29;20484;-84
2021/03/24 13:09:14;;;;;;;12.43;11.20;;;28.60;35.90;;;;;;4814867;29;20463;-83
2021/03/24 13:11:48;;;;;;;13.23;12.03;;;28.40;36.80;;;;;;4814458;29;20460;-84
2021/03/24 13:14:40;;;;;;;13.50;12.30;;;28.60;37.60;;;;;;4814641;29;20469;-84
2021/03/24 13:17:18;;;;;;;13.30;12.10;;;27.80;35.80;;;;;;4814744;29;20480;-84
2021/03/24 13:19:53;;;;;;;13.40;12.00;;;27.30;37.40;;;;;;4814253;29;20518;-84
2021/03/24 13:22:26;;;;;;;11.87;10.83;;;27.00;37.20;;;;;;4814797;29;20474;-83